sensor_id;sensor_type;location;lat;lon;timestamp;temperature;humidity
9730;DHT22;4904;49.152;11.004;2023-03-01T00:00:05;-0.90;99.90
9730;DHT22;4904;49.152;11.004;2023-03-01T00:02:33;-0.80;99.90
9730;DHT22;4904;49.152;11.004;2023-03-01T00:05:00;-0.70;99.90
9730;DHT22;4904;49.152;11.004;2023-03-01T00:07:28;-0.70;99.90
9730;DHT22;4904;49.152;11.004;2023-03-01T00:09:56;-0.60;99.90
9730;DHT22;4904;49.152;11.004;2023-03-01T00:12:23;-0.60;99.90
9730;DHT22;4904;49.152;11.004;2023-03-01T00:14:50;-0.50;99.90
9730;DHT22;4904;49.152;11.004;2023-03-01T00:17:17;-0.50;99.90
9730;DHT22;4904;49.152;11.004;2023-03-01T00:19:44;-0.50;99.90
9730;DHT22;4904;49.152;11.004;2023-03-01T00:22:11;-0.40;99.90
9730;DHT22;4904;49.152;11.004;2023-03-01T00:24:37;-0.50;99.90
9730;DHT22;4904;49.152;11.004;2023-03-01T00:27:06;-0.50;99.90
9730;DHT22;4904;49.152;11.004;2023-03-01T00:29:33;-0.50;99.90
9730;DHT22;4904;49.152;11.004;2023-03-01T00:32:00;-0.50;99.90
9730;DHT22;4904;49.152;11.004;2023-03-01T00:34:27;-0.40;99.90
9730;DHT22;4904;49.152;11.004;2023-03-01T00:36:53;-0.50;99.90
9730;DHT22;4904;49.152;11.004;2023-03-01T00:39:20;-0.50;99.90
9730;DHT22;4904;49.152;11.004;2023-03-01T00:41:47;-0.60;99.90
9730;DHT22;4904;49.152;11.004;2023-03-01T00:44:16;-0.60;99.90
9730;DHT22;4904;49.152;11.004;2023-03-01T00:46:43;-0.70;99.90
9730;DHT22;4904;49.152;11.004;2023-03-01T00:49:10;-0.70;99.90
9730;DHT22;4904;49.152;11.004;2023-03-01T00:51:37;-0.70;99.90
9730;DHT22;4904;49.152;11.004;2023-03-01T00:54:04;-0.80;99.90
9730;DHT22;4904;49.152;11.004;2023-03-01T00:56:32;-0.70;99.90
9730;DHT22;4904;49.152;11.004;2023-03-01T00:58:59;-0.70;99.90
9730;DHT22;4904;49.152;11.004;2023-03-01T01:01:29;-0.70;99.90
9730;DHT22;4904;49.152;11.004;2023-03-01T01:03:57;-0.70;99.90
9730;DHT22;4904;49.152;11.004;2023-03-01T01:06:26;-0.60;99.90
9730;DHT22;4904;49.152;11.004;2023-03-01T01:08:54;-0.50;99.90
9730;DHT22;4904;49.152;11.004;2023-03-01T01:11:22;-0.50;99.90
9730;DHT22;4904;49.152;11.004;2023-03-01T01:13:50;-0.50;99.90
9730;DHT22;4904;49.152;11.004;2023-03-01T01:16:18;-0.60;99.90
9730;DHT22;4904;49.152;11.004;2023-03-01T01:18:46;-0.60;99.90
9730;DHT22;4904;49.152;11.004;2023-03-01T01:21:15;-0.50;99.90
9730;DHT22;4904;49.152;11.004;2023-03-01T01:23:43;-0.50;99.90
9730;DHT22;4904;49.152;11.004;2023-03-01T01:26:12;-0.50;99.90
9730;DHT22;4904;49.152;11.004;2023-03-01T01:28:39;-0.50;99.90
9730;DHT22;4904;49.152;11.004;2023-03-01T01:31:07;-0.50;99.90
9730;DHT22;4904;49.152;11.004;2023-03-01T01:33:35;-0.40;99.90
9730;DHT22;4904;49.152;11.004;2023-03-01T01:36:05;-0.40;99.90
9730;DHT22;4904;49.152;11.004;2023-03-01T01:38:34;-0.30;99.90
9730;DHT22;4904;49.152;11.004;2023-03-01T01:41:01;-0.20;99.90
9730;DHT22;4904;49.152;11.004;2023-03-01T01:43:30;-0.20;99.90
9730;DHT22;4904;49.152;11.004;2023-03-01T01:46:00;-0.20;99.90
9730;DHT22;4904;49.152;11.004;2023-03-01T01:48:34;-0.20;99.90
9730;DHT22;4904;49.152;11.004;2023-03-01T01:51:09;-0.10;99.90
9730;DHT22;4904;49.152;11.004;2023-03-01T01:53:38;-0.20;99.90
9730;DHT22;4904;49.152;11.004;2023-03-01T01:56:08;-0.20;99.90
9730;DHT22;4904;49.152;11.004;2023-03-01T01:58:36;-0.20;99.90
9730;DHT22;4904;49.152;11.004;2023-03-01T02:01:04;-0.20;99.90
9730;DHT22;4904;49.152;11.004;2023-03-01T02:03:32;-0.10;99.90
9730;DHT22;4904;49.152;11.004;2023-03-01T02:06:07;-0.20;99.90
9730;DHT22;4904;49.152;11.004;2023-03-01T02:08:41;-0.20;99.90
9730;DHT22;4904;49.152;11.004;2023-03-01T02:11:09;-0.20;99.90
9730;DHT22;4904;49.152;11.004;2023-03-01T02:13:36;-0.20;99.90
9730;DHT22;4904;49.152;11.004;2023-03-01T02:16:04;-0.20;99.90
9730;DHT22;4904;49.152;11.004;2023-03-01T02:18:31;-0.10;99.90
9730;DHT22;4904;49.152;11.004;2023-03-01T02:21:17;-0.10;99.90
9730;DHT22;4904;49.152;11.004;2023-03-01T02:23:47;-0.10;99.90
9730;DHT22;4904;49.152;11.004;2023-03-01T02:26:20;-0.20;99.90
9730;DHT22;4904;49.152;11.004;2023-03-01T02:28:52;-0.20;99.90
9730;DHT22;4904;49.152;11.004;2023-03-01T02:31:21;-0.20;99.90
9730;DHT22;4904;49.152;11.004;2023-03-01T02:34:07;-0.20;99.90
9730;DHT22;4904;49.152;11.004;2023-03-01T02:36:36;-0.20;99.90
9730;DHT22;4904;49.152;11.004;2023-03-01T02:39:07;-0.30;99.90
9730;DHT22;4904;49.152;11.004;2023-03-01T02:41:42;-0.40;99.90
9730;DHT22;4904;49.152;11.004;2023-03-01T02:44:11;-0.50;99.90
9730;DHT22;4904;49.152;11.004;2023-03-01T02:46:42;-0.50;99.90
9730;DHT22;4904;49.152;11.004;2023-03-01T02:49:24;-0.50;99.90
9730;DHT22;4904;49.152;11.004;2023-03-01T02:52:20;-0.60;99.90
9730;DHT22;4904;49.152;11.004;2023-03-01T02:54:55;-0.50;99.90
9730;DHT22;4904;49.152;11.004;2023-03-01T02:57:25;-0.60;99.90
9730;DHT22;4904;49.152;11.004;2023-03-01T02:59:55;-0.60;99.90
9730;DHT22;4904;49.152;11.004;2023-03-01T03:02:24;-0.70;99.90
9730;DHT22;4904;49.152;11.004;2023-03-01T03:05:03;-0.70;99.90
9730;DHT22;4904;49.152;11.004;2023-03-01T03:07:32;-0.70;99.90
9730;DHT22;4904;49.152;11.004;2023-03-01T03:09:59;-0.70;99.90
9730;DHT22;4904;49.152;11.004;2023-03-01T03:12:26;-0.80;99.90
9730;DHT22;4904;49.152;11.004;2023-03-01T03:14:54;-0.80;99.90
9730;DHT22;4904;49.152;11.004;2023-03-01T03:17:21;-0.80;99.90
9730;DHT22;4904;49.152;11.004;2023-03-01T03:19:48;-0.70;99.90
9730;DHT22;4904;49.152;11.004;2023-03-01T03:22:15;-0.80;99.90
9730;DHT22;4904;49.152;11.004;2023-03-01T03:24:42;-0.90;99.90
9730;DHT22;4904;49.152;11.004;2023-03-01T03:27:09;-0.90;99.90
9730;DHT22;4904;49.152;11.004;2023-03-01T03:29:36;-0.90;99.90
9730;DHT22;4904;49.152;11.004;2023-03-01T03:32:04;-0.80;99.90
9730;DHT22;4904;49.152;11.004;2023-03-01T03:34:31;-0.80;99.90
9730;DHT22;4904;49.152;11.004;2023-03-01T03:36:58;-0.90;99.90
9730;DHT22;4904;49.152;11.004;2023-03-01T03:39:26;-0.80;99.90
9730;DHT22;4904;49.152;11.004;2023-03-01T03:41:53;-0.90;99.90
9730;DHT22;4904;49.152;11.004;2023-03-01T03:44:20;-0.90;99.90
9730;DHT22;4904;49.152;11.004;2023-03-01T03:46:47;-1.00;99.90
9730;DHT22;4904;49.152;11.004;2023-03-01T03:49:15;-1.00;99.90
9730;DHT22;4904;49.152;11.004;2023-03-01T03:51:45;-1.10;99.90
9730;DHT22;4904;49.152;11.004;2023-03-01T03:54:11;-1.00;99.90
9730;DHT22;4904;49.152;11.004;2023-03-01T03:56:39;-1.10;99.90
9730;DHT22;4904;49.152;11.004;2023-03-01T03:59:06;-1.10;99.90
9730;DHT22;4904;49.152;11.004;2023-03-01T04:01:33;-1.30;99.90
9730;DHT22;4904;49.152;11.004;2023-03-01T04:03:59;-1.20;99.90
9730;DHT22;4904;49.152;11.004;2023-03-01T04:06:31;-1.20;99.90
9730;DHT22;4904;49.152;11.004;2023-03-01T04:08:57;-1.20;99.90
9730;DHT22;4904;49.152;11.004;2023-03-01T04:11:26;-1.20;99.90
9730;DHT22;4904;49.152;11.004;2023-03-01T04:13:54;-1.20;99.90
9730;DHT22;4904;49.152;11.004;2023-03-01T04:16:23;-1.20;99.90
9730;DHT22;4904;49.152;11.004;2023-03-01T04:18:50;-1.20;99.90
9730;DHT22;4904;49.152;11.004;2023-03-01T04:21:17;-1.30;99.90
9730;DHT22;4904;49.152;11.004;2023-03-01T04:23:47;-1.40;99.90
9730;DHT22;4904;49.152;11.004;2023-03-01T04:26:14;-1.40;99.90
9730;DHT22;4904;49.152;11.004;2023-03-01T04:28:42;-1.30;99.90
9730;DHT22;4904;49.152;11.004;2023-03-01T04:31:12;-1.30;99.90
9730;DHT22;4904;49.152;11.004;2023-03-01T04:33:42;-1.40;99.90
9730;DHT22;4904;49.152;11.004;2023-03-01T04:36:10;-1.40;99.90
9730;DHT22;4904;49.152;11.004;2023-03-01T04:38:39;-1.40;99.90
9730;DHT22;4904;49.152;11.004;2023-03-01T04:41:08;-1.50;99.90
9730;DHT22;4904;49.152;11.004;2023-03-01T04:43:36;-1.40;99.90
9730;DHT22;4904;49.152;11.004;2023-03-01T04:46:06;-1.40;99.90
9730;DHT22;4904;49.152;11.004;2023-03-01T04:48:35;-1.40;99.90
9730;DHT22;4904;49.152;11.004;2023-03-01T04:51:02;-1.40;99.90
9730;DHT22;4904;49.152;11.004;2023-03-01T04:53:30;-1.50;99.90
9730;DHT22;4904;49.152;11.004;2023-03-01T04:55:58;-1.50;99.90
9730;DHT22;4904;49.152;11.004;2023-03-01T04:58:27;-1.60;99.90
9730;DHT22;4904;49.152;11.004;2023-03-01T05:00:54;-1.60;99.90
9730;DHT22;4904;49.152;11.004;2023-03-01T05:03:21;-1.60;99.90
9730;DHT22;4904;49.152;11.004;2023-03-01T05:05:50;-1.60;99.90
9730;DHT22;4904;49.152;11.004;2023-03-01T05:08:17;-1.60;99.90
9730;DHT22;4904;49.152;11.004;2023-03-01T05:10:48;-1.60;99.90
9730;DHT22;4904;49.152;11.004;2023-03-01T05:13:16;-1.60;99.90
9730;DHT22;4904;49.152;11.004;2023-03-01T05:15:48;-1.70;99.90
9730;DHT22;4904;49.152;11.004;2023-03-01T05:18:15;-1.70;99.90
9730;DHT22;4904;49.152;11.004;2023-03-01T05:20:42;-1.70;99.90
9730;DHT22;4904;49.152;11.004;2023-03-01T05:23:10;-1.80;99.90
9730;DHT22;4904;49.152;11.004;2023-03-01T05:25:37;-1.80;99.90
9730;DHT22;4904;49.152;11.004;2023-03-01T05:28:06;-1.80;99.90
9730;DHT22;4904;49.152;11.004;2023-03-01T05:30:35;-1.70;99.90
9730;DHT22;4904;49.152;11.004;2023-03-01T05:33:08;-1.80;99.90
9730;DHT22;4904;49.152;11.004;2023-03-01T05:35:39;-1.70;99.90
9730;DHT22;4904;49.152;11.004;2023-03-01T05:38:08;-1.80;99.90
9730;DHT22;4904;49.152;11.004;2023-03-01T05:40:39;-1.80;99.90
9730;DHT22;4904;49.152;11.004;2023-03-01T05:43:06;-1.90;99.90
9730;DHT22;4904;49.152;11.004;2023-03-01T05:45:35;-2.00;99.90
9730;DHT22;4904;49.152;11.004;2023-03-01T05:48:02;-2.00;99.90
9730;DHT22;4904;49.152;11.004;2023-03-01T05:50:33;-2.00;99.90
9730;DHT22;4904;49.152;11.004;2023-03-01T05:53:02;-2.10;99.90
9730;DHT22;4904;49.152;11.004;2023-03-01T05:55:30;-2.10;99.90
9730;DHT22;4904;49.152;11.004;2023-03-01T05:57:59;-2.10;99.90
9730;DHT22;4904;49.152;11.004;2023-03-01T06:00:27;-2.10;99.90
9730;DHT22;4904;49.152;11.004;2023-03-01T06:02:54;-2.10;99.90
9730;DHT22;4904;49.152;11.004;2023-03-01T06:05:21;-2.20;99.90
9730;DHT22;4904;49.152;11.004;2023-03-01T06:07:50;-2.20;99.90
9730;DHT22;4904;49.152;11.004;2023-03-01T06:10:19;-2.20;99.90
9730;DHT22;4904;49.152;11.004;2023-03-01T06:12:46;-2.10;99.90
9730;DHT22;4904;49.152;11.004;2023-03-01T06:15:15;-2.10;99.90
9730;DHT22;4904;49.152;11.004;2023-03-01T06:17:44;-2.10;99.90
9730;DHT22;4904;49.152;11.004;2023-03-01T06:20:13;-2.00;99.90
9730;DHT22;4904;49.152;11.004;2023-03-01T06:22:41;-2.10;99.90
9730;DHT22;4904;49.152;11.004;2023-03-01T06:25:10;-2.20;99.90
9730;DHT22;4904;49.152;11.004;2023-03-01T06:27:38;-2.20;99.90
9730;DHT22;4904;49.152;11.004;2023-03-01T06:30:06;-2.20;99.90
9730;DHT22;4904;49.152;11.004;2023-03-01T06:32:33;-2.10;99.90
9730;DHT22;4904;49.152;11.004;2023-03-01T06:35:00;-2.10;99.90
9730;DHT22;4904;49.152;11.004;2023-03-01T06:37:27;-2.10;99.90
9730;DHT22;4904;49.152;11.004;2023-03-01T06:39:54;-2.00;99.90
9730;DHT22;4904;49.152;11.004;2023-03-01T06:42:22;-1.90;99.90
9730;DHT22;4904;49.152;11.004;2023-03-01T06:44:49;-1.90;99.90
9730;DHT22;4904;49.152;11.004;2023-03-01T06:47:16;-1.90;99.90
9730;DHT22;4904;49.152;11.004;2023-03-01T06:49:43;-1.90;99.90
9730;DHT22;4904;49.152;11.004;2023-03-01T06:52:09;-1.80;99.90
9730;DHT22;4904;49.152;11.004;2023-03-01T06:54:36;-1.80;99.90
9730;DHT22;4904;49.152;11.004;2023-03-01T06:57:03;-1.80;99.90
9730;DHT22;4904;49.152;11.004;2023-03-01T06:59:31;-1.70;99.90
9730;DHT22;4904;49.152;11.004;2023-03-01T07:01:58;-1.60;99.90
9730;DHT22;4904;49.152;11.004;2023-03-01T07:04:25;-1.60;99.90
9730;DHT22;4904;49.152;11.004;2023-03-01T07:06:54;-1.50;99.90
9730;DHT22;4904;49.152;11.004;2023-03-01T07:09:21;-1.40;99.90
9730;DHT22;4904;49.152;11.004;2023-03-01T07:11:48;-1.50;99.90
9730;DHT22;4904;49.152;11.004;2023-03-01T07:14:15;-1.50;99.90
9730;DHT22;4904;49.152;11.004;2023-03-01T07:16:43;-1.50;99.90
9730;DHT22;4904;49.152;11.004;2023-03-01T07:19:13;-1.40;99.90
9730;DHT22;4904;49.152;11.004;2023-03-01T07:21:40;-1.30;99.90
9730;DHT22;4904;49.152;11.004;2023-03-01T07:24:08;-1.30;99.90
9730;DHT22;4904;49.152;11.004;2023-03-01T07:26:36;-1.30;99.90
9730;DHT22;4904;49.152;11.004;2023-03-01T07:29:04;-1.20;99.90
9730;DHT22;4904;49.152;11.004;2023-03-01T07:31:31;-1.20;99.90
9730;DHT22;4904;49.152;11.004;2023-03-01T07:34:00;-1.10;99.90
9730;DHT22;4904;49.152;11.004;2023-03-01T07:36:27;-1.00;99.90
9730;DHT22;4904;49.152;11.004;2023-03-01T07:38:54;-0.90;99.90
9730;DHT22;4904;49.152;11.004;2023-03-01T07:41:21;-0.80;99.90
9730;DHT22;4904;49.152;11.004;2023-03-01T07:43:48;-0.70;99.90
9730;DHT22;4904;49.152;11.004;2023-03-01T07:46:15;-0.70;99.90
9730;DHT22;4904;49.152;11.004;2023-03-01T07:48:43;-0.60;99.90
9730;DHT22;4904;49.152;11.004;2023-03-01T07:51:12;-0.50;99.90
9730;DHT22;4904;49.152;11.004;2023-03-01T07:53:39;-0.40;99.90
9730;DHT22;4904;49.152;11.004;2023-03-01T07:56:07;-0.40;99.90
9730;DHT22;4904;49.152;11.004;2023-03-01T07:58:35;-0.30;99.90
9730;DHT22;4904;49.152;11.004;2023-03-01T08:01:03;-0.20;99.90
9730;DHT22;4904;49.152;11.004;2023-03-01T08:03:30;-0.20;99.90
9730;DHT22;4904;49.152;11.004;2023-03-01T08:05:59;-0.10;99.90
9730;DHT22;4904;49.152;11.004;2023-03-01T08:08:27;0.00;99.90
9730;DHT22;4904;49.152;11.004;2023-03-01T08:10:56;0.10;99.90
9730;DHT22;4904;49.152;11.004;2023-03-01T08:13:23;0.20;99.90
9730;DHT22;4904;49.152;11.004;2023-03-01T08:15:50;0.20;99.90
9730;DHT22;4904;49.152;11.004;2023-03-01T08:18:17;0.30;99.90
9730;DHT22;4904;49.152;11.004;2023-03-01T08:20:45;0.30;99.90
9730;DHT22;4904;49.152;11.004;2023-03-01T08:23:12;0.40;99.90
9730;DHT22;4904;49.152;11.004;2023-03-01T08:25:40;0.50;99.90
9730;DHT22;4904;49.152;11.004;2023-03-01T08:28:07;0.60;99.90
9730;DHT22;4904;49.152;11.004;2023-03-01T08:30:34;0.70;99.90
9730;DHT22;4904;49.152;11.004;2023-03-01T08:33:01;0.80;99.90
9730;DHT22;4904;49.152;11.004;2023-03-01T08:35:28;0.90;99.90
9730;DHT22;4904;49.152;11.004;2023-03-01T08:37:55;0.90;99.90
9730;DHT22;4904;49.152;11.004;2023-03-01T08:40:22;1.00;99.90
9730;DHT22;4904;49.152;11.004;2023-03-01T08:42:50;1.20;99.90
9730;DHT22;4904;49.152;11.004;2023-03-01T08:45:17;1.30;99.90
9730;DHT22;4904;49.152;11.004;2023-03-01T08:47:44;1.30;99.90
9730;DHT22;4904;49.152;11.004;2023-03-01T08:50:11;1.60;99.90
9730;DHT22;4904;49.152;11.004;2023-03-01T08:52:38;1.60;99.90
9730;DHT22;4904;49.152;11.004;2023-03-01T08:55:07;1.70;99.90
9730;DHT22;4904;49.152;11.004;2023-03-01T08:57:34;1.80;99.90
9730;DHT22;4904;49.152;11.004;2023-03-01T09:00:03;1.90;99.90
9730;DHT22;4904;49.152;11.004;2023-03-01T09:02:34;1.90;99.90
9730;DHT22;4904;49.152;11.004;2023-03-01T09:05:01;2.00;99.90
9730;DHT22;4904;49.152;11.004;2023-03-01T09:07:27;2.10;99.90
9730;DHT22;4904;49.152;11.004;2023-03-01T09:09:55;2.20;99.90
9730;DHT22;4904;49.152;11.004;2023-03-01T09:12:22;2.30;99.90
9730;DHT22;4904;49.152;11.004;2023-03-01T09:14:50;2.40;99.90
9730;DHT22;4904;49.152;11.004;2023-03-01T09:17:18;2.50;99.90
9730;DHT22;4904;49.152;11.004;2023-03-01T09:19:47;2.50;99.90
9730;DHT22;4904;49.152;11.004;2023-03-01T09:22:14;2.60;99.90
9730;DHT22;4904;49.152;11.004;2023-03-01T09:24:41;2.60;99.90
9730;DHT22;4904;49.152;11.004;2023-03-01T09:27:08;2.70;99.90
9730;DHT22;4904;49.152;11.004;2023-03-01T09:29:35;2.80;99.90
9730;DHT22;4904;49.152;11.004;2023-03-01T09:32:02;2.90;99.90
9730;DHT22;4904;49.152;11.004;2023-03-01T09:34:31;3.00;99.90
9730;DHT22;4904;49.152;11.004;2023-03-01T09:37:17;3.20;99.90
9730;DHT22;4904;49.152;11.004;2023-03-01T09:39:44;3.20;99.90
9730;DHT22;4904;49.152;11.004;2023-03-01T09:42:12;3.30;99.90
9730;DHT22;4904;49.152;11.004;2023-03-01T09:44:46;3.40;99.90
9730;DHT22;4904;49.152;11.004;2023-03-01T09:47:17;3.40;99.90
9730;DHT22;4904;49.152;11.004;2023-03-01T09:49:51;3.50;99.90
9730;DHT22;4904;49.152;11.004;2023-03-01T09:52:25;3.60;99.90
9730;DHT22;4904;49.152;11.004;2023-03-01T09:54:55;3.70;99.90
9730;DHT22;4904;49.152;11.004;2023-03-01T09:57:30;3.80;99.90
9730;DHT22;4904;49.152;11.004;2023-03-01T10:00:30;3.90;99.90
9730;DHT22;4904;49.152;11.004;2023-03-01T10:03:06;4.10;99.90
9730;DHT22;4904;49.152;11.004;2023-03-01T10:05:44;4.20;99.90
9730;DHT22;4904;49.152;11.004;2023-03-01T10:08:31;4.30;99.90
9730;DHT22;4904;49.152;11.004;2023-03-01T10:11:02;4.40;99.90
9730;DHT22;4904;49.152;11.004;2023-03-01T10:13:35;4.50;99.90
9730;DHT22;4904;49.152;11.004;2023-03-01T10:16:10;4.50;99.90
9730;DHT22;4904;49.152;11.004;2023-03-01T10:18:39;4.60;99.90
9730;DHT22;4904;49.152;11.004;2023-03-01T10:21:14;4.70;99.90
9730;DHT22;4904;49.152;11.004;2023-03-01T10:23:42;4.80;99.90
9730;DHT22;4904;49.152;11.004;2023-03-01T10:26:22;4.90;99.90
9730;DHT22;4904;49.152;11.004;2023-03-01T10:29:00;5.00;99.90
9730;DHT22;4904;49.152;11.004;2023-03-01T10:31:39;5.00;99.90
9730;DHT22;4904;49.152;11.004;2023-03-01T10:34:11;5.20;99.90
9730;DHT22;4904;49.152;11.004;2023-03-01T10:36:41;5.20;99.90
9730;DHT22;4904;49.152;11.004;2023-03-01T10:39:15;5.30;99.90
9730;DHT22;4904;49.152;11.004;2023-03-01T10:41:54;5.30;99.90
9730;DHT22;4904;49.152;11.004;2023-03-01T10:44:42;5.40;99.90
9730;DHT22;4904;49.152;11.004;2023-03-01T10:47:20;5.50;99.90
9730;DHT22;4904;49.152;11.004;2023-03-01T10:49:57;5.60;99.90
9730;DHT22;4904;49.152;11.004;2023-03-01T10:52:27;5.70;99.90
9730;DHT22;4904;49.152;11.004;2023-03-01T10:54:56;5.80;99.90
9730;DHT22;4904;49.152;11.004;2023-03-01T10:57:35;5.80;99.90
9730;DHT22;4904;49.152;11.004;2023-03-01T11:00:19;5.80;99.90
9730;DHT22;4904;49.152;11.004;2023-03-01T11:02:49;5.90;99.90
9730;DHT22;4904;49.152;11.004;2023-03-01T11:05:20;5.90;99.90
9730;DHT22;4904;49.152;11.004;2023-03-01T11:07:51;5.90;99.90
9730;DHT22;4904;49.152;11.004;2023-03-01T11:10:21;6.00;99.90
9730;DHT22;4904;49.152;11.004;2023-03-01T11:12:50;6.00;99.90
9730;DHT22;4904;49.152;11.004;2023-03-01T11:15:25;6.20;99.90
9730;DHT22;4904;49.152;11.004;2023-03-01T11:17:53;6.30;99.90
9730;DHT22;4904;49.152;11.004;2023-03-01T11:20:27;6.30;99.90
9730;DHT22;4904;49.152;11.004;2023-03-01T11:23:00;6.40;99.90
9730;DHT22;4904;49.152;11.004;2023-03-01T11:25:31;6.40;99.90
9730;DHT22;4904;49.152;11.004;2023-03-01T11:28:02;6.50;99.90
9730;DHT22;4904;49.152;11.004;2023-03-01T11:30:34;6.60;99.90
9730;DHT22;4904;49.152;11.004;2023-03-01T11:33:11;6.60;99.90
9730;DHT22;4904;49.152;11.004;2023-03-01T11:35:44;6.60;99.90
9730;DHT22;4904;49.152;11.004;2023-03-01T11:38:24;6.70;99.90
9730;DHT22;4904;49.152;11.004;2023-03-01T11:40:55;6.80;99.90
9730;DHT22;4904;49.152;11.004;2023-03-01T11:43:31;7.00;99.90
9730;DHT22;4904;49.152;11.004;2023-03-01T11:49:22;7.00;99.90
9730;DHT22;4904;49.152;11.004;2023-03-01T11:52:00;7.10;99.90
9730;DHT22;4904;49.152;11.004;2023-03-01T11:54:42;7.10;99.90
9730;DHT22;4904;49.152;11.004;2023-03-01T11:57:18;7.20;99.90
9730;DHT22;4904;49.152;11.004;2023-03-01T12:00:07;7.30;99.90
9730;DHT22;4904;49.152;11.004;2023-03-01T12:03:02;7.40;99.90
9730;DHT22;4904;49.152;11.004;2023-03-01T12:05:59;7.30;99.90
9730;DHT22;4904;49.152;11.004;2023-03-01T12:08:34;7.30;99.90
9730;DHT22;4904;49.152;11.004;2023-03-01T12:11:15;7.30;99.90
9730;DHT22;4904;49.152;11.004;2023-03-01T12:14:22;7.40;99.90
9730;DHT22;4904;49.152;11.004;2023-03-01T12:17:04;7.60;99.90
9730;DHT22;4904;49.152;11.004;2023-03-01T12:19:51;7.70;99.90
9730;DHT22;4904;49.152;11.004;2023-03-01T12:22:30;7.80;99.90
9730;DHT22;4904;49.152;11.004;2023-03-01T12:25:16;7.90;99.90
9730;DHT22;4904;49.152;11.004;2023-03-01T12:28:16;8.00;99.90
9730;DHT22;4904;49.152;11.004;2023-03-01T12:30:58;8.10;99.90
9730;DHT22;4904;49.152;11.004;2023-03-01T12:33:36;8.10;99.90
9730;DHT22;4904;49.152;11.004;2023-03-01T12:36:29;8.10;99.90
9730;DHT22;4904;49.152;11.004;2023-03-01T12:39:06;8.20;99.90
9730;DHT22;4904;49.152;11.004;2023-03-01T12:41:48;8.40;99.90
9730;DHT22;4904;49.152;11.004;2023-03-01T12:44:47;8.40;99.90
9730;DHT22;4904;49.152;11.004;2023-03-01T12:47:30;8.60;99.90
9730;DHT22;4904;49.152;11.004;2023-03-01T12:50:03;8.70;99.90
9730;DHT22;4904;49.152;11.004;2023-03-01T12:52:35;8.80;99.90
9730;DHT22;4904;49.152;11.004;2023-03-01T12:55:14;8.80;99.90
9730;DHT22;4904;49.152;11.004;2023-03-01T12:57:48;9.00;99.90
9730;DHT22;4904;49.152;11.004;2023-03-01T13:00:26;9.10;99.90
9730;DHT22;4904;49.152;11.004;2023-03-01T13:02:59;9.20;99.90
9730;DHT22;4904;49.152;11.004;2023-03-01T13:05:34;9.30;99.90
9730;DHT22;4904;49.152;11.004;2023-03-01T13:08:10;9.30;99.90
9730;DHT22;4904;49.152;11.004;2023-03-01T13:10:45;9.30;99.90
9730;DHT22;4904;49.152;11.004;2023-03-01T13:13:19;9.40;99.90
9730;DHT22;4904;49.152;11.004;2023-03-01T13:15:48;9.40;99.90
9730;DHT22;4904;49.152;11.004;2023-03-01T13:18:40;9.50;99.90
9730;DHT22;4904;49.152;11.004;2023-03-01T13:21:07;9.70;99.90
9730;DHT22;4904;49.152;11.004;2023-03-01T13:23:37;9.60;99.90
9730;DHT22;4904;49.152;11.004;2023-03-01T13:26:11;9.70;99.90
9730;DHT22;4904;49.152;11.004;2023-03-01T13:28:49;9.70;99.90
9730;DHT22;4904;49.152;11.004;2023-03-01T13:34:54;10.00;99.90
9730;DHT22;4904;49.152;11.004;2023-03-01T13:37:35;10.20;99.90
9730;DHT22;4904;49.152;11.004;2023-03-01T13:42:56;10.50;99.90
9730;DHT22;4904;49.152;11.004;2023-03-01T13:45:33;10.40;99.90
9730;DHT22;4904;49.152;11.004;2023-03-01T13:48:03;10.40;99.90
9730;DHT22;4904;49.152;11.004;2023-03-01T13:50:38;10.40;99.90
9730;DHT22;4904;49.152;11.004;2023-03-01T13:53:15;10.50;99.90
9730;DHT22;4904;49.152;11.004;2023-03-01T13:55:45;10.60;99.90
9730;DHT22;4904;49.152;11.004;2023-03-01T13:58:22;10.70;99.90
9730;DHT22;4904;49.152;11.004;2023-03-01T14:00:56;11.00;99.90
9730;DHT22;4904;49.152;11.004;2023-03-01T14:03:24;10.90;99.90
9730;DHT22;4904;49.152;11.004;2023-03-01T14:06:05;10.90;99.90
9730;DHT22;4904;49.152;11.004;2023-03-01T14:08:34;11.00;99.90
9730;DHT22;4904;49.152;11.004;2023-03-01T14:11:40;11.10;99.90
9730;DHT22;4904;49.152;11.004;2023-03-01T14:14:28;11.30;99.90
9730;DHT22;4904;49.152;11.004;2023-03-01T14:17:04;11.40;99.90
9730;DHT22;4904;49.152;11.004;2023-03-01T14:19:35;11.40;99.90
9730;DHT22;4904;49.152;11.004;2023-03-01T14:22:14;11.50;99.90
9730;DHT22;4904;49.152;11.004;2023-03-01T14:24:47;11.70;99.90
9730;DHT22;4904;49.152;11.004;2023-03-01T14:27:15;11.70;99.90
9730;DHT22;4904;49.152;11.004;2023-03-01T14:29:42;11.70;99.90
9730;DHT22;4904;49.152;11.004;2023-03-01T14:32:19;11.80;99.90
9730;DHT22;4904;49.152;11.004;2023-03-01T14:34:48;11.70;99.90
9730;DHT22;4904;49.152;11.004;2023-03-01T14:37:22;11.90;99.90
9730;DHT22;4904;49.152;11.004;2023-03-01T14:39:51;11.90;99.90
9730;DHT22;4904;49.152;11.004;2023-03-01T14:42:19;11.80;99.90
9730;DHT22;4904;49.152;11.004;2023-03-01T14:44:49;12.00;99.90
9730;DHT22;4904;49.152;11.004;2023-03-01T14:47:23;12.20;99.90
9730;DHT22;4904;49.152;11.004;2023-03-01T14:49:57;12.70;99.90
9730;DHT22;4904;49.152;11.004;2023-03-01T14:52:31;12.90;99.90
9730;DHT22;4904;49.152;11.004;2023-03-01T14:55:01;13.20;99.90
9730;DHT22;4904;49.152;11.004;2023-03-01T14:57:29;13.30;99.90
9730;DHT22;4904;49.152;11.004;2023-03-01T14:59:59;13.60;99.90
9730;DHT22;4904;49.152;11.004;2023-03-01T15:02:30;13.60;99.90
9730;DHT22;4904;49.152;11.004;2023-03-01T15:05:00;13.70;99.90
9730;DHT22;4904;49.152;11.004;2023-03-01T15:07:31;13.90;99.90
9730;DHT22;4904;49.152;11.004;2023-03-01T15:09:59;14.10;99.90
9730;DHT22;4904;49.152;11.004;2023-03-01T15:12:37;13.70;99.90
9730;DHT22;4904;49.152;11.004;2023-03-01T15:15:22;13.60;99.90
9730;DHT22;4904;49.152;11.004;2023-03-01T15:17:56;14.00;99.90
9730;DHT22;4904;49.152;11.004;2023-03-01T15:20:26;14.20;99.90
9730;DHT22;4904;49.152;11.004;2023-03-01T15:23:00;14.60;99.90
9730;DHT22;4904;49.152;11.004;2023-03-01T15:25:29;14.00;99.90
9730;DHT22;4904;49.152;11.004;2023-03-01T15:27:57;14.00;99.90
9730;DHT22;4904;49.152;11.004;2023-03-01T15:30:26;14.20;99.90
9730;DHT22;4904;49.152;11.004;2023-03-01T15:33:20;13.80;99.90
9730;DHT22;4904;49.152;11.004;2023-03-01T15:35:48;13.70;99.90
9730;DHT22;4904;49.152;11.004;2023-03-01T15:38:29;13.60;99.90
9730;DHT22;4904;49.152;11.004;2023-03-01T15:40:58;13.40;99.90
9730;DHT22;4904;49.152;11.004;2023-03-01T15:43:40;13.50;99.90
9730;DHT22;4904;49.152;11.004;2023-03-01T15:46:20;13.60;99.90
9730;DHT22;4904;49.152;11.004;2023-03-01T15:48:50;13.40;99.90
9730;DHT22;4904;49.152;11.004;2023-03-01T15:51:29;13.20;99.90
9730;DHT22;4904;49.152;11.004;2023-03-01T15:53:59;13.10;99.90
9730;DHT22;4904;49.152;11.004;2023-03-01T15:56:27;12.70;99.90
9730;DHT22;4904;49.152;11.004;2023-03-01T15:58:58;12.80;99.90
9730;DHT22;4904;49.152;11.004;2023-03-01T16:01:26;12.70;99.90
9730;DHT22;4904;49.152;11.004;2023-03-01T16:03:53;13.00;99.90
9730;DHT22;4904;49.152;11.004;2023-03-01T16:06:20;13.00;99.90
9730;DHT22;4904;49.152;11.004;2023-03-01T16:08:46;12.70;99.90
9730;DHT22;4904;49.152;11.004;2023-03-01T16:11:17;12.70;99.90
9730;DHT22;4904;49.152;11.004;2023-03-01T16:13:45;12.50;99.90
9730;DHT22;4904;49.152;11.004;2023-03-01T16:16:13;12.20;99.90
9730;DHT22;4904;49.152;11.004;2023-03-01T16:18:42;11.80;99.90
9730;DHT22;4904;49.152;11.004;2023-03-01T16:21:15;11.60;99.90
9730;DHT22;4904;49.152;11.004;2023-03-01T16:23:43;11.10;99.90